Accueil
METAR-TAF:

METAR-TAF

Aéroports :

Aéroport international de Bagdad

Bagdad, Irak

latitude: 33-15-45N, longitude: 44-14-04E, altitude: 35 m

Observation

Le bulletin a été fait il y a 7 minutes, à 04:00 UTC
Vent 16 kt de ouest/nord-ouest
Température 29°C
Humidité 43%
Pression 1005 hPa
Visibilité: 5000 m
Chasse-poussière élevée

METAR: ORBI 230400Z 30016KT 5000 BLDU NSC 29/15 Q1005 NOSIG

Heure: 07:07 (04:07 UTC)

Prévision

Le bulletin a été fait il y a 6 heures et 7 minutes, à 22:00 UTC
Prévision valable du 23 à 00 UTC au 23 à 24 UTC
Vent 5 kt de ouest
Visibilité: 8000 m
Evoluant progressivement
du 23 à 04 UTC au 23 à 06 UTC
Vent 16 kt de nord-ouest
Visibilité: 5000 m
Chasse-poussière élevée
Evoluant progressivement
du 23 à 16 UTC au 23 à 18 UTC
Vent 8 kt de ouest/nord-ouest
Visibilité: 8000 m

TAF: ORBI 222200Z 2300/2324 28005KT 8000 NSC BECMG 2304/2306 32016KT 5000 BLDU BECMG 2316/2318 30008KT 8000 NSC

Observations et prévisions météorologiques de plus de 4000 aéroports (messages METAR et TAF).

Les stations disponibles sont représentées par des disques jaunes et rouges sur la carte.

Passer la souris dessus pour voir le nom de la station.

Cliquer dessus pour voir les observations et prévisions météorologiques.

Pour changer de carte: cliquez sur les boutons verts avec une croix noire pour zoomer, sur le bouton vert avec un tiret pour effectuer un zoom arrière, ou sur les flèches vertes pour les cartes adjacentes.


METAR-TAF: